Portage Glacier, AK

1:08 PM AKDT on October 20, 2014 (GMT -0800)
Portage Glacier | Change Station
CLOSE
Current Station
Airport
Location: Portage Glacier,
Elevation: 102 ft
Nearby Weather Stations

Elev 102 ft 60.78 °N, 148.84 °W | Updated 15 minutes ago

Overcast
Overcast
33 °F
Feels Like 33 °F
N
0
Wind Variable Wind from North

Today
High -- | Low -- °F
--% Chance of Precip.
Yesterday
High -- | Low -- °F
Precip. -- in
8:50 AM 6:28 PM
Waning Crescent, 9% visible
Pressure 29.04 in
Visibility 4.0 miles
Clouds Few 300 ft
Overcast 1100 ft
Dew Point 33 °F
Humidity 100%
Rainfall 1.24 in
Snow Depth 26 in , 49 in
UV 0 out of 12
Pollen Not available.
Air Quality Not available.
Flu Activity Sporadic
METAR PATO 202053Z AUTO 00000KT 4SM BR FEW003 OVC011 01/01 A2904 RMK AO2 RAE00UPB00E08 CIG 006V013 SLP833 P0000 60006 T00060006 53021 TSNO

More Conditions Fewer Conditions

Pressure 29.04 in
Visibility 4.0 miles
Clouds Few 300 ft
Overcast 1100 ft
Dew Point 33 °F
Humidity 100%
Rainfall 1.24 in
Snow Depth 26 in , 49 in
UV 0 out of 12
Pollen Not available.
Air Quality Not available.
Flu Activity Sporadic
METAR PATO 202053Z AUTO 00000KT 4SM BR FEW003 OVC011 01/01 A2904 RMK AO2 RAE00UPB00E08 CIG 006V013 SLP833 P0000 60006 T00060006 53021 TSNO

More Conditions Fewer Conditions

10-Day Weather Forecast

Almanac

Astronomy

Oct. 20, 2014 Rise Set
Actual Time 8:50 AM AKDT 6:28 PM AKDT
Civil Twilight 8:05 AM AKDT 7:12 PM AKDT
Nautical Twilight 7:16 AM AKDT 8:02 PM AKDT
Astronomical Twilight 6:26 AM AKDT 8:51 PM AKDT
Moon 5:01 AM AKDT 5:35 PM AKDT
Length of Visible Light 11h 06m
Length of Day
9h 38m
Waning Crescent, 9% of the Moon is Illuminated
Today
Waning Crescent
Oct 23
New
Oct 30
First Quarter
Nov 6
Full
Nov 14
Last Quarter

Today's Extremes

State Highs State Lows

Community

WunderPhotos

Upload Photos

1,763,509 photos uploaded!

WunderBlogs® & News

By Dr. Jeff Masters
Director of Meteorology, Weather Underground
By Kari Strenfel
Meteorologist, Weather Underground
By Christopher C. Burt
Weather Historian, Weather Underground
October 20, 2014
October 20, 2014
October 20, 2014

Nearby

Snow Depth

Station Depth Elevation
Turnagain Pass 26 in 1880 ft
Grandview 49 in 1100 ft
Summit Creek 4 in 1400 ft
Indian Pass 8 in 2300 ft
Grouse Creek Divide 0 in 700 ft

Earthquake Activity

City Distance Mag. Time & Date
No recent earthquake activity has been reported nearby.
Minimum magnitude displayed is 2.5.

Coastal Water Temperatures

Place Temperature
No Stations Reporting

Nearby Weather Stations